Time;durP1;ratioP1;P1;durP2;ratioP2;P2;SDS_P1;SDS_P2;PMS_P1;PMS_P2;Temp;Humidity;BMP_temperature;BMP_pressure;BME280_temperature;BME280_humidity;BME280_pressure;Samples;Min_cycle;Max_cycle;Signal;HPM_P1;HPM_P2
2019/05/23 00:01:10;;;;;;;33.2;24.6;;;;;;;6.83;100;963.6219;;;;
2019/05/23 00:03:16;;;;;;;34.1;24.8;;;;;;;6.81;100;963.5983;;;;
2019/05/23 00:05:51;;;;;;;29.1;22.9;;;;;;;6.79;100;963.5909;;;;
2019/05/23 00:08:14;;;;;;;30.3;23.7;;;;;;;6.76;100;963.5003;;;;
2019/05/23 00:10:40;;;;;;;34.9;25;;;;;;;6.77;100;963.5589;;;;
2019/05/23 00:13:12;;;;;;;32;24.4;;;;;;;6.75;100;963.5566;;;;
2019/05/23 00:15:30;;;;;;;36.5;26.6;;;;;;;6.7;100;963.5009;;;;
2019/05/23 00:17:55;;;;;;;34.3;25.9;;;;;;;6.68;100;963.5583;;;;
2019/05/23 00:20:19;;;;;;;34;24.7;;;;;;;6.65;100;963.5483;;;;
2019/05/23 00:22:47;;;;;;;38.3;26.1;;;;;;;6.63;100;963.5286;;;;
2019/05/23 00:25:13;;;;;;;32.4;24.3;;;;;;;6.58;100;963.5325;;;;
2019/05/23 00:27:39;;;;;;;30.9;25;;;;;;;6.57;100;963.5419;;;;
2019/05/23 00:30:03;;;;;;;31.5;24.7;;;;;;;6.56;100;963.5044;;;;
2019/05/23 00:32:37;;;;;;;32.7;24.7;;;;;;;6.54;100;963.4934;;;;
2019/05/23 00:34:53;;;;;;;47;30.2;;;;;;;6.55;100;963.4713;;;;
2019/05/23 00:37:19;;;;;;;31.9;24.6;;;;;;;6.56;100;963.4495;;;;
2019/05/23 00:39:44;;;;;;;36.4;26.3;;;;;;;6.53;100;963.4861;;;;
2019/05/23 00:42:12;;;;;;;37.2;27.1;;;;;;;6.51;100;963.5427;;;;
2019/05/23 00:44:38;;;;;;;35.6;25.5;;;;;;;6.49;100;963.4464;;;;
2019/05/23 00:47:05;;;;;;;36;26.3;;;;;;;6.46;100;963.4874;;;;
2019/05/23 00:49:30;;;;;;;44.7;29.2;;;;;;;6.5;100;963.4878;;;;
2019/05/23 00:51:56;;;;;;;47.7;29.7;;;;;;;6.44;100;963.4382;;;;
2019/05/23 00:54:21;;;;;;;37;26.4;;;;;;;6.38;100;963.426;;;;
2019/05/23 00:56:53;;;;;;;35.9;25.5;;;;;;;6.37;100;963.427;;;;
2019/05/23 00:59:19;;;;;;;35;25.5;;;;;;;6.34;100;963.4464;;;;
2019/05/23 01:01:46;;;;;;;39.9;26.9;;;;;;;6.29;100;963.5011;;;;
2019/05/23 01:04:12;;;;;;;47.5;30.3;;;;;;;6.3;100;963.5686;;;;
2019/05/23 01:06:36;;;;;;;38.2;25.9;;;;;;;6.28;100;963.472;;;;
2019/05/23 01:09:01;;;;;;;35;26.4;;;;;;;6.23;100;963.4892;;;;
2019/05/23 01:11:26;;;;;;;40.5;28.9;;;;;;;6.19;100;963.4963;;;;
2019/05/23 01:13:53;;;;;;;37.8;27.8;;;;;;;6.17;100;963.5197;;;;
2019/05/23 01:16:19;;;;;;;40.7;27.2;;;;;;;6.21;100;963.4745;;;;
2019/05/23 01:18:45;;;;;;;44.5;29.2;;;;;;;6.22;100;963.4905;;;;
2019/05/23 01:24:12;;;;;;;34.2;25;;;;;;;6.21;100;963.5634;;;;
2019/05/23 01:26:32;;;;;;;44.7;29.8;;;;;;;6.23;100;963.4805;;;;
2019/05/23 01:28:59;;;;;;;39.7;28.6;;;;;;;6.23;100;963.5146;;;;
2019/05/23 01:31:30;;;;;;;34.4;26.4;;;;;;;6.21;100;963.4444;;;;
2019/05/23 01:33:50;;;;;;;37.7;26.1;;;;;;;6.2;100;963.5388;;;;
2019/05/23 01:36:18;;;;;;;34.8;25.3;;;;;;;6.21;100;963.4999;;;;
2019/05/23 01:38:49;;;;;;;43.7;28.3;;;;;;;6.23;100;963.536;;;;
2019/05/23 01:41:16;;;;;;;31.2;24.2;;;;;;;6.26;100;963.5336;;;;
2019/05/23 01:43:42;;;;;;;31.8;24.6;;;;;;;6.29;100;963.6456;;;;
2019/05/23 01:46:07;;;;;;;33.2;24.2;;;;;;;6.32;100;963.5619;;;;
2019/05/23 01:48:32;;;;;;;40;29.4;;;;;;;6.39;100;963.6032;;;;
2019/05/23 01:50:57;;;;;;;39.3;27.9;;;;;;;6.41;100;963.6186;;;;
2019/05/23 01:53:22;;;;;;;37.4;26.4;;;;;;;6.38;100;963.6039;;;;
2019/05/23 01:55:49;;;;;;;34.9;24.5;;;;;;;6.38;100;963.5959;;;;
2019/05/23 01:58:32;;;;;;;63.5;37.1;;;;;;;6.33;100;963.5703;;;;
2019/05/23 02:01:06;;;;;;;42.5;29.4;;;;;;;6.35;100;963.6277;;;;
2019/05/23 02:03:32;;;;;;;29.2;23.5;;;;;;;6.32;100;963.6135;;;;
2019/05/23 02:05:57;;;;;;;27.2;20.6;;;;;;;6.35;100;963.5642;;;;
2019/05/23 02:08:22;;;;;;;42.9;30;;;;;;;6.39;100;963.4928;;;;
2019/05/23 02:10:47;;;;;;;43.1;30.7;;;;;;;6.37;100;963.5748;;;;
2019/05/23 02:13:12;;;;;;;45.6;30.1;;;;;;;6.39;100;963.5564;;;;
2019/05/23 02:15:37;;;;;;;35.5;26.2;;;;;;;6.31;100;963.4703;;;;
2019/05/23 02:18:02;;;;;;;33.4;25;;;;;;;6.27;100;963.4821;;;;
2019/05/23 02:20:28;;;;;;;47.9;31.3;;;;;;;6.31;100;963.5419;;;;
2019/05/23 02:22:53;;;;;;;41.3;28.2;;;;;;;6.26;100;963.5424;;;;
2019/05/23 02:25:18;;;;;;;31.7;23.4;;;;;;;6.25;100;963.543;;;;
2019/05/23 02:27:47;;;;;;;49.6;31.3;;;;;;;6.21;100;963.508;;;;
2019/05/23 02:30:15;;;;;;;44.1;28;;;;;;;6.18;100;963.4763;;;;
2019/05/23 02:32:41;;;;;;;30.4;23;;;;;;;6.14;100;963.4967;;;;
2019/05/23 02:35:06;;;;;;;28.8;21.5;;;;;;;6.12;100;963.4559;;;;
2019/05/23 02:40:14;;;;;;;30.8;23.8;;;;;;;6.04;100;963.6017;;;;
2019/05/23 02:42:34;;;;;;;28.6;22.5;;;;;;;6.02;100;963.5359;;;;
2019/05/23 02:44:57;;;;;;;26.6;21.3;;;;;;;6.01;100;963.4651;;;;
2019/05/23 02:49:47;;;;;;;35.1;24.2;;;;;;;5.97;100;963.5276;;;;
2019/05/23 02:52:12;;;;;;;43.8;27.7;;;;;;;5.94;100;963.4916;;;;
2019/05/23 02:54:37;;;;;;;36.5;25.5;;;;;;;5.92;100;963.4678;;;;
2019/05/23 02:57:06;;;;;;;32.6;22.8;;;;;;;5.93;100;963.5049;;;;
2019/05/23 02:59:31;;;;;;;29;22;;;;;;;5.91;100;963.4856;;;;
2019/05/23 03:02:00;;;;;;;24.8;19.2;;;;;;;5.91;100;963.519;;;;
2019/05/23 03:04:24;;;;;;;30.3;22.9;;;;;;;5.87;100;963.5474;;;;
2019/05/23 03:06:46;;;;;;;28.4;22.1;;;;;;;5.86;100;963.4686;;;;
2019/05/23 03:09:16;;;;;;;25.1;20.1;;;;;;;5.86;100;963.4258;;;;
2019/05/23 03:11:39;;;;;;;26.1;21.6;;;;;;;5.85;100;963.4478;;;;
2019/05/23 03:14:05;;;;;;;33.8;24.4;;;;;;;5.89;100;963.4786;;;;
2019/05/23 03:16:30;;;;;;;39.4;26.4;;;;;;;5.89;100;963.491;;;;
2019/05/23 03:18:56;;;;;;;35.4;24;;;;;;;5.9;100;963.4562;;;;
2019/05/23 03:21:20;;;;;;;29.6;22.7;;;;;;;5.92;100;963.4805;;;;
2019/05/23 03:23:48;;;;;;;32.1;22.8;;;;;;;5.94;100;963.5168;;;;
2019/05/23 03:26:12;;;;;;;23.8;19.4;;;;;;;5.99;100;963.4878;;;;
2019/05/23 03:28:37;;;;;;;26.9;20.1;;;;;;;6.01;100;963.5453;;;;
2019/05/23 03:31:09;;;;;;;24.1;17.6;;;;;;;5.99;100;963.4624;;;;
2019/05/23 03:33:28;;;;;;;29.1;21.4;;;;;;;5.96;100;963.4775;;;;
2019/05/23 03:35:55;;;;;;;30.5;20.5;;;;;;;5.97;100;963.4634;;;;
2019/05/23 03:38:18;;;;;;;36.7;24.7;;;;;;;5.93;100;963.4331;;;;
2019/05/23 03:40:43;;;;;;;26;20.6;;;;;;;5.93;100;963.4286;;;;
2019/05/23 03:43:08;;;;;;;22.2;17.7;;;;;;;5.97;100;963.4341;;;;
2019/05/23 03:45:37;;;;;;;24.2;19.6;;;;;;;5.97;100;963.4127;;;;
2019/05/23 03:48:14;;;;;;;23.3;18.6;;;;;;;6.04;100;963.462;;;;
2019/05/23 03:50:40;;;;;;;22.9;18.8;;;;;;;6.06;100;963.4607;;;;
2019/05/23 03:53:07;;;;;;;26.1;19.7;;;;;;;6.1;100;963.4275;;;;
2019/05/23 03:55:30;;;;;;;22.1;17.8;;;;;;;6.18;100;963.4508;;;;
2019/05/23 03:57:55;;;;;;;30.8;23;;;;;;;6.15;100;963.3984;;;;
2019/05/23 04:02:30;;;;;;;41.9;28;;;;;;;6.17;100;963.4141;;;;
2019/05/23 04:04:56;;;;;;;58.7;34.2;;;;;;;6.13;100;963.4553;;;;
2019/05/23 04:07:20;;;;;;;27.4;20.8;;;;;;;6.28;100;963.4339;;;;
2019/05/23 04:09:46;;;;;;;48.9;31.2;;;;;;;6.25;100;963.4239;;;;
2019/05/23 04:12:11;;;;;;;29.3;21;;;;;;;6.34;100;963.4504;;;;
2019/05/23 04:14:36;;;;;;;38.7;25.3;;;;;;;6.28;100;963.464;;;;
2019/05/23 04:17:01;;;;;;;27.1;19.6;;;;;;;6.26;100;963.4152;;;;
2019/05/23 04:19:26;;;;;;;34.8;23.9;;;;;;;6.35;100;963.3949;;;;
2019/05/23 04:21:51;;;;;;;22.8;18.2;;;;;;;6.4;100;963.4969;;;;
2019/05/23 04:24:18;;;;;;;20.4;16.8;;;;;;;6.4;100;963.4794;;;;
2019/05/23 04:26:43;;;;;;;29.1;22;;;;;;;6.49;100;963.502;;;;
2019/05/23 04:29:19;;;;;;;26.2;21;;;;;;;6.58;100;963.5539;;;;
2019/05/23 04:31:44;;;;;;;25.9;20.9;;;;;;;6.62;100;963.5634;;;;
2019/05/23 04:34:09;;;;;;;26.2;21.1;;;;;;;6.66;100;963.5382;;;;
2019/05/23 04:36:36;;;;;;;24.3;19.1;;;;;;;6.71;100;963.6019;;;;
2019/05/23 04:39:01;;;;;;;25.6;18.7;;;;;;;6.75;100;963.5017;;;;
2019/05/23 04:41:26;;;;;;;30.4;22.1;;;;;;;6.89;100;963.6039;;;;
2019/05/23 04:43:56;;;;;;;27;21.4;;;;;;;6.92;100;963.5887;;;;
2019/05/23 04:46:24;;;;;;;25.2;18.1;;;;;;;6.99;100;963.6082;;;;
2019/05/23 04:48:49;;;;;;;21.8;17.6;;;;;;;7.12;100;963.5932;;;;
2019/05/23 04:51:14;;;;;;;24;19.1;;;;;;;7.26;100;963.5687;;;;
2019/05/23 04:53:41;;;;;;;25.3;19.2;;;;;;;7.35;100;963.5818;;;;
2019/05/23 04:56:06;;;;;;;26.6;19.8;;;;;;;7.55;100;963.6074;;;;
2019/05/23 04:58:32;;;;;;;24.3;20.1;;;;;;;7.58;100;963.5873;;;;
2019/05/23 05:00:58;;;;;;;30.1;23.1;;;;;;;7.65;100;963.6114;;;;
2019/05/23 05:03:38;;;;;;;39;26.3;;;;;;;7.74;100;963.6202;;;;
2019/05/23 05:06:05;;;;;;;29.8;23.4;;;;;;;7.99;100;963.6664;;;;
2019/05/23 05:08:30;;;;;;;35.8;25.6;;;;;;;8.02;100;963.6295;;;;
2019/05/23 05:10:56;;;;;;;31.5;24.7;;;;;;;8.1;100;963.6266;;;;
2019/05/23 05:13:21;;;;;;;32.1;24.9;;;;;;;8.24;100;963.7166;;;;
2019/05/23 05:15:58;;;;;;;29.9;23.3;;;;;;;8.4;100;963.6217;;;;
2019/05/23 05:18:24;;;;;;;27.7;22.1;;;;;;;8.45;100;963.6591;;;;
2019/05/23 05:20:52;;;;;;;32.2;24.2;;;;;;;8.55;100;963.5906;;;;
2019/05/23 05:23:19;;;;;;;32.6;24.6;;;;;;;8.66;100;963.6149;;;;
2019/05/23 05:25:44;;;;;;;45.5;26.8;;;;;;;8.75;98.84375;963.6233;;;;
2019/05/23 05:28:09;;;;;;;40.7;25.6;;;;;;;8.87;98.52734;963.6169;;;;
2019/05/23 05:30:34;;;;;;;38.8;23.7;;;;;;;9;98.15332;963.6607;;;;
2019/05/23 05:32:59;;;;;;;37.3;25;;;;;;;9.1;97.40723;963.6889;;;;
2019/05/23 05:35:28;;;;;;;42.1;27.9;;;;;;;9.31;96.76367;963.6738;;;;
2019/05/23 05:37:57;;;;;;;37.5;25.8;;;;;;;9.36;96.34766;963.6862;;;;
2019/05/23 05:40:30;;;;;;;34.2;24.3;;;;;;;9.49;96.67676;963.6955;;;;
2019/05/23 05:42:55;;;;;;;38;27.1;;;;;;;9.65;96.49414;963.7483;;;;
2019/05/23 05:45:21;;;;;;;36.8;28.7;;;;;;;9.67;94.61035;963.7547;;;;
2019/05/23 05:47:50;;;;;;;35.2;26.8;;;;;;;9.73;96.10938;963.6976;;;;
2019/05/23 05:50:22;;;;;;;32.7;25.9;;;;;;;9.91;94.10938;963.668;;;;
2019/05/23 05:52:50;;;;;;;32.7;25;;;;;;;9.96;93.25684;963.7693;;;;
2019/05/23 05:55:18;;;;;;;30.1;23.4;;;;;;;10.09;93.81445;963.7014;;;;
2019/05/23 05:57:43;;;;;;;32.9;27.1;;;;;;;10.1;94.00098;963.7648;;;;
2019/05/23 06:00:33;;;;;;;32.1;24.9;;;;;;;10.24;94.30859;963.7899;;;;
2019/05/23 06:03:03;;;;;;;31.3;25.5;;;;;;;10.32;91.1543;963.8243;;;;
2019/05/23 06:05:38;;;;;;;32.3;25.3;;;;;;;10.44;91.05176;963.8217;;;;
2019/05/23 06:07:54;;;;;;;32.7;26.1;;;;;;;10.49;89.41406;963.8508;;;;
2019/05/23 06:10:20;;;;;;;35.4;28.3;;;;;;;10.63;90.48242;963.8622;;;;
2019/05/23 06:12:47;;;;;;;36.1;27;;;;;;;10.7;90.10254;963.8256;;;;
2019/05/23 06:15:14;;;;;;;30.3;24.6;;;;;;;10.82;87.85254;963.8095;;;;
2019/05/23 06:17:39;;;;;;;30.1;24.2;;;;;;;10.93;87.125;963.8067;;;;
2019/05/23 06:20:05;;;;;;;30.6;24.7;;;;;;;10.92;86.76563;963.778;;;;
2019/05/23 06:22:34;;;;;;;31.4;24.7;;;;;;;10.92;87.19238;963.77;;;;
2019/05/23 06:24:59;;;;;;;33.7;25.4;;;;;;;11.08;88.23047;963.7795;;;;
2019/05/23 06:27:30;;;;;;;29.9;24.3;;;;;;;11.32;88.20996;963.7842;;;;
2019/05/23 06:30:02;;;;;;;30;23.1;;;;;;;11.36;87.02637;963.7252;;;;
2019/05/23 06:32:32;;;;;;;32;24.2;;;;;;;11.49;86.0957;963.7711;;;;
2019/05/23 06:34:55;;;;;;;31.9;24;;;;;;;11.51;85.92383;963.7486;;;;
2019/05/23 06:37:20;;;;;;;34;25.2;;;;;;;11.54;84.77246;963.8136;;;;
2019/05/23 06:39:48;;;;;;;34.9;25.1;;;;;;;11.56;83.89746;963.8203;;;;
2019/05/23 06:42:13;;;;;;;31;24.4;;;;;;;11.76;83.05762;963.7908;;;;
2019/05/23 06:44:40;;;;;;;34;24.8;;;;;;;11.81;82.77832;963.7812;;;;
2019/05/23 06:47:12;;;;;;;35.1;24;;;;;;;11.79;82.80762;963.7925;;;;
2019/05/23 06:49:40;;;;;;;30.9;23.2;;;;;;;11.8;82.38184;963.774;;;;
2019/05/23 06:52:21;;;;;;;29.1;22;;;;;;;11.95;81.3916;963.7029;;;;
2019/05/23 06:54:46;;;;;;;35.1;27;;;;;;;11.86;80.15918;963.8536;;;;
2019/05/23 06:57:13;;;;;;;31.6;24;;;;;;;11.97;79.86816;963.7994;;;;
2019/05/23 06:59:42;;;;;;;30.9;24.6;;;;;;;11.9;80.01758;963.7807;;;;
2019/05/23 07:02:16;;;;;;;28.9;22.8;;;;;;;12.15;79.64648;963.7977;;;;
2019/05/23 07:04:48;;;;;;;26.1;21.1;;;;;;;12.12;77.84473;963.7623;;;;
2019/05/23 07:07:17;;;;;;;27.4;21.5;;;;;;;12.25;77.61426;963.7872;;;;
2019/05/23 07:09:56;;;;;;;28.4;21.9;;;;;;;12.26;77.53516;963.8031;;;;
2019/05/23 07:12:30;;;;;;;27.2;21;;;;;;;12.22;76.9248;963.7903;;;;
2019/05/23 07:14:56;;;;;;;25.8;20.7;;;;;;;12.5;78.03125;963.7764;;;;
2019/05/23 07:17:40;;;;;;;28.1;21.2;;;;;;;12.72;77.30273;963.8098;;;;
2019/05/23 07:20:04;;;;;;;27.8;21.8;;;;;;;12.86;77.44629;963.717;;;;
2019/05/23 07:22:28;;;;;;;26.4;21.6;;;;;;;12.85;77.69824;963.7444;;;;
2019/05/23 07:25:20;;;;;;;28.9;21.2;;;;;;;12.83;76.2666;963.6825;;;;
2019/05/23 07:27:49;;;;;;;24.4;19.8;;;;;;;12.77;75.17676;963.7406;;;;
2019/05/23 07:30:35;;;;;;;28.4;21.2;;;;;;;12.63;78.35547;963.7161;;;;
2019/05/23 07:32:53;;;;;;;26.9;21.7;;;;;;;12.82;77.33398;963.6874;;;;
2019/05/23 07:35:30;;;;;;;26.9;21.1;;;;;;;13.22;77.48633;963.6781;;;;
2019/05/23 07:38:06;;;;;;;26.1;21.2;;;;;;;13.52;76.91113;963.7145;;;;
2019/05/23 07:40:37;;;;;;;24.1;19.1;;;;;;;13.54;72.97754;963.6989;;;;
2019/05/23 07:43:16;;;;;;;26.5;20.5;;;;;;;13.55;75.0918;963.7408;;;;
2019/05/23 07:46:05;;;;;;;22.3;18.2;;;;;;;13.97;72.31543;963.6857;;;;
2019/05/23 07:48:43;;;;;;;27.5;20.6;;;;;;;13.91;72.63184;963.6789;;;;
2019/05/23 07:51:05;;;;;;;20.5;16.3;;;;;;;14.29;69.02832;963.6997;;;;
2019/05/23 07:53:48;;;;;;;20.1;16.1;;;;;;;14.33;65.92773;963.6875;;;;
2019/05/23 07:55:56;;;;;;;19;15.2;;;;;;;13.77;68.19043;963.6478;;;;
2019/05/23 07:58:21;;;;;;;22.8;17.9;;;;;;;13.7;68.2959;963.6643;;;;
2019/05/23 08:00:58;;;;;;;18.9;15.1;;;;;;;14.01;66.86914;963.5944;;;;
2019/05/23 08:03:21;;;;;;;16.6;13.6;;;;;;;14.44;66.75879;963.6358;;;;
2019/05/23 08:05:47;;;;;;;16.1;12.9;;;;;;;14.48;65.19336;963.6229;;;;
2019/05/23 08:08:39;;;;;;;14.3;10.4;;;;;;;14.37;61.2998;963.5712;;;;
2019/05/23 08:11:24;;;;;;;15;12.9;;;;;;;14.7;62.45313;963.6068;;;;
2019/05/23 08:14:07;;;;;;;15.3;12.8;;;;;;;14.6;64.87305;963.5659;;;;
2019/05/23 08:16:48;;;;;;;16.5;13.4;;;;;;;14.71;63.17676;963.4467;;;;
2019/05/23 08:19:21;;;;;;;16.4;13;;;;;;;15.25;62.89355;963.491;;;;
2019/05/23 08:22:28;;;;;;;14.7;13.1;;;;;;;15.72;60.83594;963.4695;;;;
2019/05/23 08:24:18;;;;;;;16.8;14.8;;;;;;;15.93;67.30273;963.4483;;;;
2019/05/23 08:27:17;;;;;;;18.1;14.1;;;;;;;15.29;60.96289;963.5291;;;;
2019/05/23 08:29:42;;;;;;;17.7;13.9;;;;;;;14.71;64.88867;963.4764;;;;
2019/05/23 08:32:15;;;;;;;16.8;14;;;;;;;14.4;66.01855;963.551;;;;
2019/05/23 08:34:44;;;;;;;18.4;14.6;;;;;;;14.75;64.20801;963.4938;;;;
2019/05/23 08:37:19;;;;;;;16.2;12;;;;;;;15.28;61.82422;963.4745;;;;
2019/05/23 08:39:54;;;;;;;15.1;12.9;;;;;;;15.84;62.18457;963.4972;;;;
2019/05/23 08:42:25;;;;;;;14.8;11.7;;;;;;;15.65;60.73242;963.4647;;;;
2019/05/23 08:45:02;;;;;;;12.4;9.6;;;;;;;16.17;57.67285;963.5051;;;;
2019/05/23 08:47:28;;;;;;;12;9.7;;;;;;;16.04;57.12891;963.4911;;;;
2019/05/23 08:50:02;;;;;;;12;10.7;;;;;;;15.82;57.8125;963.4534;;;;
2019/05/23 08:52:29;;;;;;;13.5;11.4;;;;;;;16.01;56.89258;963.5027;;;;
2019/05/23 08:54:52;;;;;;;15.1;10.7;;;;;;;15.98;57.83496;963.5106;;;;
2019/05/23 08:57:30;;;;;;;13.1;11.6;;;;;;;15.75;58.87891;963.4567;;;;
2019/05/23 09:00:13;;;;;;;14.7;11.1;;;;;;;16.31;56.22852;963.4793;;;;
2019/05/23 09:03:09;;;;;;;16;11.6;;;;;;;16.21;56.8252;963.418;;;;
2019/05/23 09:07:16;;;;;;;13.9;10.6;;;;;;;16.54;56.00098;963.3605;;;;
2019/05/23 09:10:11;;;;;;;14.2;11.3;;;;;;;15.23;60.28906;963.3557;;;;
2019/05/23 09:12:53;;;;;;;13.8;10.5;;;;;;;15.46;58.06836;963.3416;;;;
2019/05/23 09:15:16;;;;;;;16.5;11.2;;;;;;;14.91;60.3623;963.3411;;;;
2019/05/23 09:17:41;;;;;;;14.4;10.8;;;;;;;15.57;59.04004;963.3832;;;;
2019/05/23 09:20:23;;;;;;;12;10.6;;;;;;;15.65;55.77051;963.3267;;;;
2019/05/23 09:22:51;;;;;;;13.9;10.7;;;;;;;15.58;55.77344;963.3226;;;;
2019/05/23 09:25:18;;;;;;;12.3;10.2;;;;;;;15.2;56.53027;963.3596;;;;
2019/05/23 09:27:43;;;;;;;12.9;10;;;;;;;15.34;55.84766;963.2996;;;;
2019/05/23 09:30:14;;;;;;;11.4;9.7;;;;;;;15.24;57.81836;963.3064;;;;
2019/05/23 09:32:46;;;;;;;11;9.4;;;;;;;15.55;56.59668;963.3137;;;;
2019/05/23 09:35:19;;;;;;;11.6;9.6;;;;;;;16.38;57.36035;963.3845;;;;
2019/05/23 09:37:49;;;;;;;11.4;9.6;;;;;;;15.75;57.26758;963.2978;;;;
2019/05/23 09:40:22;;;;;;;10.6;9.3;;;;;;;16.44;55.8125;963.343;;;;
2019/05/23 09:43:34;;;;;;;10.4;9.1;;;;;;;16.23;57.54102;963.2819;;;;
2019/05/23 09:45:38;;;;;;;11.3;8.8;;;;;;;16.58;53.25684;963.313;;;;
2019/05/23 09:48:05;;;;;;;11.6;9.2;;;;;;;16.8;52.76855;963.2678;;;;
2019/05/23 09:50:30;;;;;;;11.4;9.9;;;;;;;16.87;50.55273;963.2464;;;;
2019/05/23 09:53:01;;;;;;;10.7;8.7;;;;;;;17.5;48.83203;963.2654;;;;
2019/05/23 09:56:50;;;;;;;11.1;9.2;;;;;;;17.96;45.56152;963.2502;;;;
2019/05/23 11:36:06;;;;;;;10.3;9;;;;;;;20.39;42.88672;962.5489;;;;
2019/05/23 11:38:30;;;;;;;10.6;8.3;;;;;;;20.43;41.80371;962.5187;;;;
2019/05/23 11:40:56;;;;;;;9.6;8.3;;;;;;;21.03;40.39453;962.567;;;;
2019/05/23 11:43:20;;;;;;;12;8.1;;;;;;;20.91;42.3457;962.4973;;;;
2019/05/23 11:45:49;;;;;;;11.1;9.9;;;;;;;21.06;36.02441;962.4985;;;;
2019/05/23 11:48:30;;;;;;;10.8;9.7;;;;;;;20.81;38.69824;962.4558;;;;
2019/05/23 11:51:19;;;;;;;9.7;8.7;;;;;;;21.76;35.50195;962.4135;;;;
2019/05/23 11:53:49;;;;;;;10.1;8.5;;;;;;;22.58;33.30176;962.3752;;;;
2019/05/23 11:56:14;;;;;;;9.1;8.1;;;;;;;21.31;38.33984;962.3359;;;;
2019/05/23 11:58:39;;;;;;;10.6;8.3;;;;;;;21.91;37.12402;962.2916;;;;
2019/05/23 12:01:36;;;;;;;10.3;8.3;;;;;;;22.19;40.79688;962.3074;;;;
2019/05/23 12:03:58;;;;;;;9.5;8.5;;;;;;;19.8;40.9668;962.2339;;;;
2019/05/23 12:06:29;;;;;;;8.7;7.5;;;;;;;21.36;40.5918;962.2723;;;;
2019/05/23 12:08:52;;;;;;;9.2;7.7;;;;;;;21.47;37.83301;962.2869;;;;
2019/05/23 12:11:16;;;;;;;8.7;7.8;;;;;;;21.78;34.72168;962.2156;;;;
2019/05/23 12:13:42;;;;;;;9.5;7.7;;;;;;;22.5;38.9873;962.2382;;;;
2019/05/23 12:16:11;;;;;;;10.2;8.4;;;;;;;22.36;37.24414;962.2862;;;;
2019/05/23 12:18:42;;;;;;;9.5;8.2;;;;;;;22.22;33.21582;962.2073;;;;
2019/05/23 12:21:09;;;;;;;14.1;8.4;;;;;;;20.39;39.67676;962.1459;;;;
2019/05/23 12:23:34;;;;;;;9.1;8.1;;;;;;;21.32;38.42285;962.1097;;;;
2019/05/23 12:25:59;;;;;;;9.8;6.9;;;;;;;22.92;36.8291;962.0453;;;;
2019/05/23 12:28:29;;;;;;;9.1;7.6;;;;;;;22.57;34.2373;962.0723;;;;
2019/05/23 12:30:54;;;;;;;8.1;7.3;;;;;;;22.67;36.92676;962.0563;;;;
2019/05/23 12:33:20;;;;;;;8.5;6.7;;;;;;;22.72;34.99707;962.0363;;;;
2019/05/23 12:35:45;;;;;;;7;6;;;;;;;22.78;38.06348;962.0178;;;;
2019/05/23 12:38:15;;;;;;;8.8;6.3;;;;;;;22.82;36.28613;961.965;;;;
2019/05/23 12:40:45;;;;;;;7.3;6.4;;;;;;;23.31;34.47363;961.9464;;;;
2019/05/23 12:43:10;;;;;;;9;7.1;;;;;;;22.35;34.9209;961.9441;;;;
2019/05/23 12:45:45;;;;;;;8.2;6;;;;;;;23.22;36.93652;961.9645;;;;
2019/05/23 12:48:22;;;;;;;7.7;6.7;;;;;;;22.66;32.75098;961.9319;;;;
2019/05/23 12:50:43;;;;;;;8.2;6.6;;;;;;;22.62;33.45898;961.8816;;;;
2019/05/23 12:53:16;;;;;;;8.2;6.5;;;;;;;22.96;32.00098;961.7955;;;;
2019/05/23 12:55:41;;;;;;;7.5;6.7;;;;;;;23.94;33.20117;961.8752;;;;
2019/05/23 12:58:06;;;;;;;7.1;6.4;;;;;;;24;31.81445;961.7991;;;;
2019/05/23 13:02:57;;;;;;;7.2;6.5;;;;;;;23.04;31.66211;961.7917;;;;
2019/05/23 13:05:24;;;;;;;9.1;7.3;;;;;;;22.38;32.99121;961.774;;;;
2019/05/23 13:07:51;;;;;;;8.8;6.5;;;;;;;23.41;32.58105;961.8251;;;;
2019/05/23 13:10:16;;;;;;;9.8;6.7;;;;;;;23.65;33.21582;961.7888;;;;
2019/05/23 13:12:41;;;;;;;7.4;6.6;;;;;;;25.42;27.02148;961.6902;;;;
2019/05/23 13:15:07;;;;;;;6.8;5.9;;;;;;;25.05;28.2998;961.6749;;;;
2019/05/23 13:17:33;;;;;;;7.3;6.4;;;;;;;20.93;38.90918;961.7495;;;;
2019/05/23 13:20:00;;;;;;;8.3;6.8;;;;;;;22.55;32.29199;961.562;;;;
2019/05/23 13:22:25;;;;;;;7.5;6.7;;;;;;;21.77;33.56055;961.6214;;;;
2019/05/23 13:24:54;;;;;;;8.3;6.6;;;;;;;23.24;32.56738;961.5651;;;;
2019/05/23 13:27:19;;;;;;;6;5.4;;;;;;;24.06;31.8418;961.5905;;;;
2019/05/23 13:29:49;;;;;;;6.5;5;;;;;;;24.52;32.56543;961.5347;;;;
2019/05/23 13:32:15;;;;;;;7.7;5;;;;;;;23.36;37.4834;961.5252;;;;
2019/05/23 13:34:42;;;;;;;6.3;5.2;;;;;;;23.36;31.98242;961.5292;;;;
2019/05/23 13:37:09;;;;;;;5.5;4.9;;;;;;;24.06;32.5918;961.5159;;;;
2019/05/23 13:39:41;;;;;;;5.7;5.1;;;;;;;24.14;31.9082;961.5027;;;;
2019/05/23 13:42:05;;;;;;;5;4.5;;;;;;;24.73;29.74512;961.5173;;;;
2019/05/23 13:44:33;;;;;;;5.9;4.7;;;;;;;24.07;32.10449;961.4349;;;;
2019/05/23 13:47:09;;;;;;;6.8;5.2;;;;;;;24.27;31.85742;961.4519;;;;
2019/05/23 13:49:48;;;;;;;7.4;5.5;;;;;;;24.06;30.77051;961.4636;;;;
2019/05/23 13:52:14;;;;;;;7.8;5.2;;;;;;;22.6;33.36328;961.3582;;;;
2019/05/23 13:55:01;;;;;;;6.1;5;;;;;;;24.94;30.39063;961.4186;;;;
2019/05/23 13:57:30;;;;;;;6.3;5.2;;;;;;;23.53;35.45313;961.4196;;;;
2019/05/23 14:00:10;;;;;;;5.7;5.2;;;;;;;21.94;35.00684;961.3801;;;;
2019/05/23 14:02:41;;;;;;;6.1;4.9;;;;;;;23.68;33.94336;961.3708;;;;
2019/05/23 14:05:09;;;;;;;6;4.6;;;;;;;23.69;33.09961;961.3687;;;;
2019/05/23 14:07:33;;;;;;;5.6;4.2;;;;;;;23.65;32.33594;961.3577;;;;
2019/05/23 14:09:58;;;;;;;5.7;4.4;;;;;;;23.04;34.00195;961.2905;;;;
2019/05/23 14:12:23;;;;;;;6.4;4.3;;;;;;;24.1;32.60645;961.2784;;;;
2019/05/23 14:14:49;;;;;;;6.1;3.8;;;;;;;24.65;34.5293;961.3567;;;;
2019/05/23 14:19:39;;;;;;;5.7;4.6;;;;;;;24.66;30.12207;961.2367;;;;
2019/05/23 14:22:07;;;;;;;5.2;4.7;;;;;;;23.2;32.51758;961.2095;;;;
2019/05/23 14:24:32;;;;;;;4.3;3.9;;;;;;;24.14;30.97852;961.2502;;;;
2019/05/23 14:27:07;;;;;;;5.3;4.7;;;;;;;22.79;32.37988;961.2245;;;;
2019/05/23 14:29:31;;;;;;;4.9;4.4;;;;;;;23.39;32.50781;961.1497;;;;
2019/05/23 14:32:15;;;;;;;5.1;4.6;;;;;;;22.44;33.50586;961.1869;;;;
2019/05/23 14:34:28;;;;;;;6;4.3;;;;;;;23.33;33.02539;961.2286;;;;
2019/05/23 14:39:33;;;;;;;5.9;4.3;;;;;;;23.7;31.91211;961.2014;;;;
2019/05/23 14:41:59;;;;;;;5.5;4.5;;;;;;;23.04;31.37695;961.1351;;;;
2019/05/23 14:44:20;;;;;;;4.6;4.1;;;;;;;22.97;33.40234;961.1847;;;;
2019/05/23 14:46:58;;;;;;;6.1;4;;;;;;;22.8;32.78516;961.1884;;;;
2019/05/23 14:49:17;;;;;;;5;4.1;;;;;;;23.2;30.35645;961.1012;;;;
2019/05/23 14:51:44;;;;;;;4.1;3.7;;;;;;;23.46;32.60742;961.1178;;;;
2019/05/23 14:56:32;;;;;;;4.8;3.9;;;;;;;23.39;30.71387;961.1497;;;;
2019/05/23 14:58:56;;;;;;;5.6;3.6;;;;;;;22.22;34.13965;961.0379;;;;
2019/05/23 15:01:25;;;;;;;4.3;3.5;;;;;;;22.68;36.20508;961.0765;;;;
2019/05/23 15:03:50;;;;;;;4.6;3.7;;;;;;;24.62;28.91504;961.0347;;;;
2019/05/23 15:06:16;;;;;;;6.2;3.3;;;;;;;23;31.77832;961.0325;;;;
2019/05/23 15:08:41;;;;;;;4.2;3.5;;;;;;;23.21;32.46973;961.0164;;;;
2019/05/23 15:11:06;;;;;;;4.2;3.8;;;;;;;22.91;32.73438;961.0103;;;;
2019/05/23 15:13:34;;;;;;;5.2;3.4;;;;;;;23.49;32.96582;961.0609;;;;
2019/05/23 15:16:24;;;;;;;4.8;3.8;;;;;;;22.01;34.79883;960.9868;;;;
2019/05/23 15:19:00;;;;;;;4;3.3;;;;;;;21.74;34.2334;960.9539;;;;
2019/05/23 15:21:25;;;;;;;4.6;3.4;;;;;;;22.61;32.16504;960.9747;;;;
2019/05/23 15:23:59;;;;;;;4.9;3.5;;;;;;;24.73;31.10352;960.9205;;;;
2019/05/23 15:26:24;;;;;;;4.7;3.7;;;;;;;23.88;28.45117;960.9123;;;;
2019/05/23 15:28:50;;;;;;;4.1;3.6;;;;;;;23.25;33.2207;960.9113;;;;
2019/05/23 15:31:15;;;;;;;4.6;3.9;;;;;;;24.16;31.08789;960.9495;;;;
2019/05/23 15:33:40;;;;;;;4.5;3.7;;;;;;;23.64;31.44434;960.9015;;;;
2019/05/23 15:36:09;;;;;;;4.2;3.8;;;;;;;23.84;31.85059;960.8438;;;;
2019/05/23 15:38:54;;;;;;;4.6;3.5;;;;;;;23.84;29.83984;960.8176;;;;
2019/05/23 15:41:22;;;;;;;4;3.6;;;;;;;24.09;29.17871;960.8051;;;;
2019/05/23 15:43:50;;;;;;;6;3.7;;;;;;;25.43;28.2998;960.7533;;;;
2019/05/23 15:46:18;;;;;;;5;4;;;;;;;24.25;28.18945;960.7478;;;;
2019/05/23 15:49:12;;;;;;;4.6;4.2;;;;;;;25.59;26.18359;960.7278;;;;
2019/05/23 15:51:48;;;;;;;4.1;3.7;;;;;;;23.68;30.59082;960.7436;;;;
2019/05/23 15:54:14;;;;;;;4.6;3.7;;;;;;;23.85;30.29297;960.7209;;;;
2019/05/23 15:59:18;;;;;;;4.4;3.2;;;;;;;22.82;33.45117;960.6156;;;;
2019/05/23 16:01:35;;;;;;;4.6;3.6;;;;;;;23.46;29.2207;960.6907;;;;
2019/05/23 16:04:00;;;;;;;5.5;3.7;;;;;;;23.45;29.75488;960.6358;;;;
2019/05/23 16:06:23;;;;;;;3.4;3;;;;;;;24.94;30.06934;960.6369;;;;
2019/05/23 16:08:48;;;;;;;5;3.7;;;;;;;23.4;31.60547;960.5947;;;;
2019/05/23 16:11:22;;;;;;;4.9;3.4;;;;;;;23.49;32.20605;960.5592;;;;
2019/05/23 16:13:52;;;;;;;5.3;3.6;;;;;;;23.7;34.08691;960.5793;;;;
2019/05/23 16:16:20;;;;;;;4.1;3.1;;;;;;;24.46;30.59668;960.5541;;;;
2019/05/23 16:18:56;;;;;;;5.2;3.5;;;;;;;24.04;31.48438;960.5287;;;;
2019/05/23 16:21:33;;;;;;;5.4;3.4;;;;;;;23.96;30.3125;960.4989;;;;
2019/05/23 16:24:07;;;;;;;4.2;3.3;;;;;;;25.32;26.75293;960.4969;;;;
2019/05/23 16:26:32;;;;;;;11.2;3.6;;;;;;;23.27;30.49121;960.5236;;;;
2019/05/23 16:28:56;;;;;;;4.1;3;;;;;;;24.17;30.05273;960.4958;;;;
2019/05/23 16:31:24;;;;;;;5.4;3.2;;;;;;;23.68;31.43457;960.5345;;;;
2019/05/23 16:33:49;;;;;;;3.8;3.4;;;;;;;23.39;30.16699;960.5358;;;;
2019/05/23 16:36:26;;;;;;;3.4;3.1;;;;;;;21.27;34.68164;960.4719;;;;
2019/05/23 16:38:54;;;;;;;4.2;3.2;;;;;;;22.99;33.1543;960.4816;;;;
2019/05/23 16:41:37;;;;;;;3.2;2.8;;;;;;;23.49;31.83691;960.5122;;;;
2019/05/23 16:44:10;;;;;;;3.7;2.9;;;;;;;23.57;33.01953;960.5643;;;;
2019/05/23 16:46:35;;;;;;;3.1;2.7;;;;;;;23.19;32.68262;960.5458;;;;
2019/05/23 16:49:03;;;;;;;4;2.8;;;;;;;23.24;33.80273;960.5457;;;;